createdAt,value
2018-02-25T00:01:07.108Z,6.93
2018-02-25T00:03:34.686Z,8.35
2018-02-25T00:06:03.056Z,8.18
2018-02-25T00:08:30.688Z,6.70
2018-02-25T00:10:59.060Z,8.43
2018-02-25T00:13:26.638Z,9.00
2018-02-25T00:15:54.315Z,7.10
2018-02-25T00:18:21.901Z,6.55
2018-02-25T00:20:49.530Z,6.95
2018-02-25T00:23:17.174Z,7.45
2018-02-25T00:25:44.796Z,7.25
2018-02-25T00:28:13.198Z,8.00
2018-02-25T00:30:40.856Z,7.43
2018-02-25T00:33:08.492Z,7.95
2018-02-25T00:35:36.855Z,6.35
2018-02-25T00:38:04.671Z,7.07
2018-02-25T00:40:32.235Z,7.60
2018-02-25T00:43:00.629Z,7.43
2018-02-25T00:45:28.255Z,8.00
2018-02-25T00:47:55.863Z,8.10
2018-02-25T00:50:23.485Z,7.95
2018-02-25T00:52:51.086Z,7.25
2018-02-25T00:55:18.717Z,6.62
2018-02-25T00:57:46.315Z,8.63
2018-02-25T01:00:13.966Z,6.72
2018-02-25T01:02:41.577Z,8.25
2018-02-25T01:05:09.157Z,7.78
2018-02-25T01:07:36.775Z,7.53
2018-02-25T01:10:05.171Z,8.00
2018-02-25T01:12:32.772Z,6.85
2018-02-25T01:15:00.462Z,6.90
2018-02-25T01:17:28.026Z,7.15
2018-02-25T01:19:59.263Z,7.32
2018-02-25T01:22:26.899Z,5.90
2018-02-25T01:24:54.495Z,7.55
2018-02-25T01:27:22.058Z,7.40
2018-02-25T01:29:50.435Z,7.47
2018-02-25T01:32:18.893Z,7.15
2018-02-25T01:34:46.463Z,7.30
2018-02-25T01:37:14.064Z,7.55
2018-02-25T01:39:41.700Z,6.47
2018-02-25T01:42:10.109Z,6.53
2018-02-25T01:44:37.772Z,8.15
2018-02-25T01:47:05.381Z,8.07
2018-02-25T01:49:33.001Z,6.93
2018-02-25T01:52:00.599Z,5.57
2018-02-25T01:54:28.198Z,6.28
2018-02-25T01:56:55.824Z,5.12
2018-02-25T01:59:23.427Z,6.82
2018-02-25T02:01:51.040Z,6.30
2018-02-25T02:04:18.678Z,7.20
2018-02-25T02:06:46.294Z,7.43
2018-02-25T02:09:14.664Z,6.05
2018-02-25T02:11:43.032Z,6.40
2018-02-25T02:14:10.718Z,5.90
2018-02-25T02:16:39.127Z,6.70
2018-02-25T02:19:06.716Z,7.30
2018-02-25T02:21:34.324Z,5.55
2018-02-25T02:24:01.957Z,5.65
2018-02-25T02:26:29.527Z,7.00
2018-02-25T02:28:57.914Z,6.45
2018-02-25T02:31:26.284Z,8.40
2018-02-25T02:33:53.937Z,6.40
2018-02-25T02:36:21.503Z,5.70
2018-02-25T02:38:49.863Z,8.30
2018-02-25T02:41:17.464Z,7.05
2018-02-25T02:43:45.099Z,8.15
2018-02-25T02:46:13.457Z,7.68
2018-02-25T02:48:41.084Z,7.95
2018-02-25T02:51:08.737Z,7.85
2018-02-25T02:53:36.326Z,8.85
2018-02-25T02:56:03.948Z,7.40
2018-02-25T02:58:31.553Z,7.30
2018-02-25T03:00:59.124Z,7.65
2018-02-25T03:03:26.761Z,7.43
2018-02-25T03:05:54.402Z,7.65
2018-02-25T03:08:22.018Z,8.50
2018-02-25T03:10:49.641Z,8.23
2018-02-25T03:13:17.221Z,7.93
2018-02-25T03:15:44.818Z,8.15
2018-02-25T03:18:12.480Z,5.95
2018-02-25T03:20:40.899Z,7.80
2018-02-25T03:23:08.495Z,8.57
2018-02-25T03:25:36.112Z,9.55
2018-02-25T03:28:03.690Z,8.45
2018-02-25T03:30:31.327Z,8.77
2018-02-25T03:32:58.987Z,7.87
2018-02-25T03:35:26.628Z,9.27
2018-02-25T03:37:54.253Z,8.27
2018-02-25T03:40:21.862Z,6.45
2018-02-25T03:42:49.476Z,8.40
2018-02-25T03:45:17.099Z,8.25
2018-02-25T03:47:44.694Z,8.85
2018-02-25T03:50:12.280Z,7.87
2018-02-25T03:52:40.647Z,8.35
2018-02-25T03:55:08.235Z,8.50
2018-02-25T03:57:35.830Z,9.70
2018-02-25T04:00:03.545Z,8.25
2018-02-25T04:02:31.112Z,6.57
2018-02-25T04:04:58.807Z,8.00
2018-02-25T04:07:26.387Z,8.85
2018-02-25T04:09:53.999Z,9.40
2018-02-25T04:12:21.639Z,15.65
2018-02-25T04:14:53.551Z,13.62
2018-02-25T04:17:21.194Z,14.23
2018-02-25T04:19:48.802Z,10.43
2018-02-25T04:22:16.460Z,8.55
2018-02-25T04:24:44.096Z,7.10
2018-02-25T04:27:11.692Z,9.43
2018-02-25T04:29:39.320Z,8.80
2018-02-25T04:32:06.974Z,6.10
2018-02-25T04:34:34.557Z,8.48
2018-02-25T04:37:02.179Z,8.52
2018-02-25T04:39:29.816Z,9.45
2018-02-25T04:41:58.212Z,9.27
2018-02-25T04:44:25.811Z,9.30
2018-02-25T04:46:53.415Z,7.37
2018-02-25T04:49:21.002Z,7.72
2018-02-25T04:51:48.611Z,9.65
2018-02-25T04:54:16.198Z,9.57
2018-02-25T04:56:43.855Z,9.77
2018-02-25T04:59:12.230Z,9.23
2018-02-25T05:01:40.614Z,10.75
2018-02-25T05:04:09.036Z,11.70
2018-02-25T05:06:36.611Z,11.05
2018-02-25T05:09:04.256Z,9.95
2018-02-25T05:11:31.837Z,11.07
2018-02-25T05:13:59.478Z,10.60
2018-02-25T05:16:27.092Z,11.15
2018-02-25T05:18:55.491Z,10.80
2018-02-25T05:21:23.128Z,11.55
2018-02-25T05:23:51.588Z,11.20
2018-02-25T05:26:19.195Z,11.18
2018-02-25T05:28:46.784Z,10.70
2018-02-25T05:31:14.471Z,10.35
2018-02-25T05:33:42.122Z,10.25
2018-02-25T05:36:09.776Z,11.07
2018-02-25T05:38:37.440Z,10.50
2018-02-25T05:41:05.068Z,10.18
2018-02-25T05:43:32.686Z,11.90
2018-02-25T05:46:00.306Z,12.80
2018-02-25T05:48:27.935Z,11.07
2018-02-25T05:50:55.588Z,10.20
2018-02-25T05:56:17.660Z,9.73
2018-02-25T05:58:58.666Z,14.35
2018-02-25T06:01:26.241Z,10.32
2018-02-25T06:03:53.887Z,11.55
2018-02-25T06:06:21.482Z,10.95
2018-02-25T06:08:49.901Z,11.68
2018-02-25T06:11:17.539Z,12.40
2018-02-25T06:13:45.180Z,11.20
2018-02-25T06:16:12.812Z,12.18
2018-02-25T06:18:40.425Z,11.00
2018-02-25T06:21:07.992Z,11.75
2018-02-25T06:23:35.589Z,12.05
2018-02-25T06:26:03.226Z,11.18
2018-02-25T06:28:31.433Z,12.70
2018-02-25T06:33:53.410Z,10.38
2018-02-25T06:36:46.478Z,13.90
2018-02-25T06:39:14.086Z,12.98
2018-02-25T06:42:00.264Z,11.88
2018-02-25T06:50:13.914Z,11.05
2018-02-25T06:52:41.531Z,11.68
2018-02-25T06:55:30.634Z,10.82
2018-02-25T06:58:25.198Z,10.18
2018-02-25T07:01:14.827Z,10.95
2018-02-25T07:03:42.407Z,11.90
2018-02-25T07:06:10.036Z,11.27
2018-02-25T07:08:43.629Z,11.35
2018-02-25T07:11:11.296Z,11.98
2018-02-25T07:13:39.000Z,11.60
2018-02-25T07:16:06.662Z,11.45
2018-02-25T07:18:34.263Z,10.65
2018-02-25T07:21:01.907Z,12.02
2018-02-25T07:23:29.569Z,11.88
2018-02-25T07:25:57.207Z,13.88
2018-02-25T07:28:24.802Z,12.80
2018-02-25T07:30:53.164Z,10.13
2018-02-25T07:33:20.801Z,12.48
2018-02-25T07:35:48.394Z,10.77
2018-02-25T07:38:16.003Z,11.27
2018-02-25T07:40:43.603Z,10.85
2018-02-25T07:43:11.244Z,10.68
2018-02-25T07:45:38.869Z,10.68
2018-02-25T07:48:12.595Z,11.90
2018-02-25T07:50:40.226Z,10.60
2018-02-25T07:53:07.836Z,8.80
2018-02-25T07:55:35.443Z,11.40
2018-02-25T07:58:03.831Z,11.20
2018-02-25T08:00:32.207Z,11.80
2018-02-25T08:02:59.831Z,10.52
2018-02-25T08:05:27.440Z,10.70
2018-02-25T08:08:19.237Z,9.95
2018-02-25T08:10:46.872Z,9.93
2018-02-25T08:13:14.459Z,11.38
2018-02-25T08:15:42.092Z,9.98
2018-02-25T08:18:09.724Z,8.80
2018-02-25T08:20:37.363Z,9.68
2018-02-25T08:23:04.967Z,8.57
2018-02-25T08:25:32.569Z,8.02
2018-02-25T08:28:00.193Z,8.73
2018-02-25T08:30:27.834Z,9.48
2018-02-25T08:32:55.492Z,9.55
2018-02-25T08:35:23.151Z,8.80
2018-02-25T08:37:50.787Z,9.32
2018-02-25T08:40:18.450Z,8.70
2018-02-25T08:42:46.091Z,9.70
2018-02-25T08:45:13.728Z,9.45
2018-02-25T08:47:41.362Z,9.35
2018-02-25T08:50:09.051Z,10.15
2018-02-25T08:52:37.402Z,8.52
2018-02-25T08:55:05.020Z,7.78
2018-02-25T08:57:32.684Z,9.43
2018-02-25T09:00:00.289Z,9.35
2018-02-25T09:02:27.936Z,6.85
2018-02-25T09:04:56.283Z,8.38
2018-02-25T09:07:23.871Z,9.70
2018-02-25T09:09:51.508Z,8.50
2018-02-25T09:12:19.137Z,8.52
2018-02-25T09:14:46.735Z,8.55
2018-02-25T09:17:14.339Z,6.93
2018-02-25T09:19:41.911Z,8.38
2018-02-25T09:22:09.544Z,7.97
2018-02-25T09:24:37.955Z,7.87
2018-02-25T09:27:05.616Z,7.50
2018-02-25T09:29:33.578Z,8.77
2018-02-25T09:32:01.165Z,7.72
2018-02-25T09:34:29.597Z,8.32
2018-02-25T09:36:57.210Z,6.60
2018-02-25T09:39:24.833Z,7.40
2018-02-25T09:41:52.440Z,7.37
2018-02-25T09:44:20.045Z,7.12
2018-02-25T09:46:47.645Z,7.32
2018-02-25T09:49:15.265Z,6.72
2018-02-25T09:51:42.867Z,6.85
2018-02-25T09:54:11.292Z,7.53
2018-02-25T09:56:38.915Z,6.80
2018-02-25T09:59:10.124Z,7.20
2018-02-25T10:01:37.921Z,6.55
2018-02-25T10:04:09.760Z,7.45
2018-02-25T10:06:37.427Z,6.95
2018-02-25T10:09:05.021Z,6.25
2018-02-25T10:11:39.076Z,5.68
2018-02-25T10:14:06.697Z,5.50
2018-02-25T10:16:34.367Z,6.30
2018-02-25T10:19:05.458Z,6.32
2018-02-25T10:21:33.116Z,5.62
2018-02-25T10:24:00.724Z,5.65
2018-02-25T10:26:28.352Z,6.20
2018-02-25T10:28:56.732Z,6.00
2018-02-25T10:31:25.080Z,6.40
2018-02-25T10:33:52.745Z,5.60
2018-02-25T10:36:20.331Z,5.50
2018-02-25T10:38:48.715Z,6.05
2018-02-25T10:41:16.330Z,5.40
2018-02-25T10:43:43.945Z,5.60
2018-02-25T10:46:11.563Z,5.35
2018-02-25T10:48:39.168Z,5.80
2018-02-25T10:51:06.756Z,6.28
2018-02-25T10:53:34.351Z,5.75
2018-02-25T10:56:01.915Z,6.00
2018-02-25T10:58:29.510Z,6.45
2018-02-25T11:01:02.909Z,5.47
2018-02-25T11:03:30.554Z,4.10
2018-02-25T11:05:58.915Z,5.12
2018-02-25T11:08:26.567Z,5.50
2018-02-25T11:10:54.149Z,5.72
2018-02-25T11:13:22.499Z,5.20
2018-02-25T11:15:50.113Z,5.80
2018-02-25T11:18:17.767Z,5.37
2018-02-25T11:20:45.399Z,4.70
2018-02-25T11:23:12.999Z,5.30
2018-02-25T11:25:40.588Z,5.22
2018-02-25T11:28:08.184Z,5.12
2018-02-25T11:30:36.576Z,5.20
2018-02-25T11:33:04.927Z,5.12
2018-02-25T11:35:32.518Z,5.07
2018-02-25T11:38:00.116Z,5.20
2018-02-25T11:40:27.727Z,5.22
2018-02-25T11:42:56.197Z,5.53
2018-02-25T11:45:24.571Z,4.80
2018-02-25T11:47:55.830Z,4.40
2018-02-25T11:50:24.185Z,4.78
2018-02-25T11:52:51.816Z,4.03
2018-02-25T11:55:19.514Z,4.60
2018-02-25T11:57:47.088Z,3.90
2018-02-25T12:00:15.468Z,4.40
2018-02-25T12:02:43.851Z,4.07
2018-02-25T12:05:12.260Z,3.75
2018-02-25T12:07:39.878Z,4.40
2018-02-25T12:10:07.460Z,2.90
2018-02-25T12:12:35.057Z,4.93
2018-02-25T12:15:02.698Z,4.50
2018-02-25T12:17:30.353Z,3.80
2018-02-25T12:19:57.931Z,4.55
2018-02-25T12:22:27.478Z,4.25
2018-02-25T12:25:14.144Z,5.05
2018-02-25T12:27:52.965Z,4.62
2018-02-25T12:30:20.590Z,4.47
2018-02-25T12:32:48.985Z,5.30
2018-02-25T12:35:26.932Z,5.32
2018-02-25T12:37:54.536Z,4.90
2018-02-25T12:40:22.964Z,5.40
2018-02-25T12:42:50.546Z,5.47
2018-02-25T12:45:18.138Z,6.12
2018-02-25T12:47:46.500Z,5.10
2018-02-25T12:50:14.854Z,5.10
2018-02-25T12:52:42.502Z,5.00
2018-02-25T12:55:10.121Z,5.82
2018-02-25T12:57:37.753Z,6.20
2018-02-25T13:00:05.381Z,5.47
2018-02-25T13:02:33.013Z,5.57
2018-02-25T13:05:00.662Z,5.22
2018-02-25T13:07:28.264Z,5.20
2018-02-25T13:09:55.956Z,5.65
2018-02-25T13:12:23.567Z,5.50
2018-02-25T13:14:51.207Z,5.20
2018-02-25T13:17:19.786Z,5.50
2018-02-25T13:19:48.216Z,5.60
2018-02-25T13:22:15.806Z,5.80
2018-02-25T13:24:43.486Z,6.55
2018-02-25T13:27:11.822Z,6.68
2018-02-25T13:29:39.428Z,6.10
2018-02-25T13:32:07.796Z,7.68
2018-02-25T13:34:36.227Z,6.40
2018-02-25T13:37:03.848Z,6.30
2018-02-25T13:39:32.240Z,5.90
2018-02-25T13:41:59.871Z,5.90
2018-02-25T13:44:28.235Z,7.45
2018-02-25T13:46:57.072Z,6.12
2018-02-25T13:49:28.246Z,6.43
2018-02-25T13:51:55.831Z,6.20
2018-02-25T13:54:23.391Z,7.15
2018-02-25T13:56:50.951Z,6.97
2018-02-25T13:59:18.572Z,8.32
2018-02-25T14:01:46.246Z,9.20
2018-02-25T14:04:13.930Z,10.80
2018-02-25T14:06:41.562Z,10.40
2018-02-25T14:09:09.157Z,8.20
2018-02-25T14:11:37.516Z,7.12
2018-02-25T14:14:05.129Z,6.65
2018-02-25T14:16:32.780Z,7.00
2018-02-25T14:19:01.239Z,8.82
2018-02-25T14:21:28.910Z,7.05
2018-02-25T14:23:57.337Z,6.30
2018-02-25T14:26:24.977Z,6.50
2018-02-25T14:28:52.566Z,7.18
2018-02-25T14:31:20.190Z,7.65
2018-02-25T14:33:47.862Z,10.43
2018-02-25T14:36:15.512Z,9.77
2018-02-25T14:38:43.173Z,8.15
2018-02-25T14:41:10.808Z,10.25
2018-02-25T14:43:38.432Z,9.00
2018-02-25T14:46:06.018Z,10.27
2018-02-25T14:48:33.685Z,8.30
2018-02-25T14:51:01.323Z,6.30
2018-02-25T14:53:29.869Z,8.20
2018-02-25T14:56:00.277Z,9.57
2018-02-25T14:58:33.768Z,8.10
2018-02-25T15:01:02.161Z,7.43
2018-02-25T15:03:32.930Z,8.80
2018-02-25T15:06:00.524Z,8.60
2018-02-25T15:08:28.156Z,10.15
2018-02-25T15:10:55.799Z,8.63
2018-02-25T15:13:23.411Z,8.55
2018-02-25T15:15:51.042Z,7.97
2018-02-25T15:18:39.353Z,7.93
2018-02-25T15:21:06.979Z,7.57
2018-02-25T15:23:35.382Z,8.60
2018-02-25T15:26:02.991Z,8.02
2018-02-25T15:28:30.617Z,11.60
2018-02-25T15:30:58.256Z,8.43
2018-02-25T15:33:26.627Z,7.95
2018-02-25T15:35:54.236Z,8.50
2018-02-25T15:38:21.888Z,7.50
2018-02-25T15:40:49.521Z,8.68
2018-02-25T15:43:17.172Z,7.90
2018-02-25T15:45:44.973Z,7.80
2018-02-25T15:48:14.525Z,9.82
2018-02-25T15:50:42.127Z,8.38
2018-02-25T15:53:09.754Z,7.20
2018-02-25T15:55:37.392Z,7.20
2018-02-25T15:58:05.120Z,8.15
2018-02-25T16:00:33.497Z,6.60
2018-02-25T16:03:02.057Z,8.00
2018-02-25T16:05:30.992Z,6.82
2018-02-25T16:07:58.611Z,7.53
2018-02-25T16:10:27.021Z,6.97
2018-02-25T16:12:54.669Z,7.80
2018-02-25T16:15:22.245Z,7.70
2018-02-25T16:17:49.882Z,5.03
2018-02-25T16:20:17.512Z,6.43
2018-02-25T16:22:45.119Z,7.68
2018-02-25T16:25:12.718Z,7.20
2018-02-25T16:27:40.300Z,6.75
2018-02-25T16:30:07.912Z,7.32
2018-02-25T16:32:35.563Z,7.40
2018-02-25T16:35:03.196Z,7.22
2018-02-25T16:37:30.813Z,7.70
2018-02-25T16:39:58.447Z,6.95
2018-02-25T16:42:31.844Z,6.45
2018-02-25T16:44:59.468Z,6.45
2018-02-25T16:47:27.883Z,6.90
2018-02-25T16:49:55.479Z,7.25
2018-02-25T16:52:23.145Z,6.50
2018-02-25T16:54:50.776Z,6.30
2018-02-25T16:57:18.390Z,6.50
2018-02-25T16:59:46.780Z,6.50
2018-02-25T17:02:14.457Z,6.43
2018-02-25T17:04:42.085Z,6.35
2018-02-25T17:07:09.742Z,6.65
2018-02-25T17:09:37.395Z,6.50
2018-02-25T17:12:05.880Z,6.10
2018-02-25T17:14:33.501Z,5.50
2018-02-25T17:17:01.125Z,6.32
2018-02-25T17:19:28.711Z,6.00
2018-02-25T17:21:56.322Z,6.10
2018-02-25T17:24:23.972Z,6.80
2018-02-25T17:26:51.623Z,6.93
2018-02-25T17:29:19.249Z,6.25
2018-02-25T17:31:46.910Z,7.37
2018-02-25T17:34:14.553Z,7.15
2018-02-25T17:36:42.308Z,6.95
2018-02-25T17:39:10.709Z,6.20
2018-02-25T17:41:38.362Z,5.70
2018-02-25T17:44:06.008Z,6.35
2018-02-25T17:46:34.248Z,6.15
2018-02-25T17:49:01.889Z,6.60
2018-02-25T17:51:29.493Z,6.82
2018-02-25T17:53:57.953Z,6.75
2018-02-25T17:56:25.661Z,6.65
2018-02-25T17:58:53.287Z,7.62
2018-02-25T18:01:21.002Z,6.57
2018-02-25T18:03:49.381Z,7.12
2018-02-25T18:06:16.990Z,6.97
2018-02-25T18:08:44.618Z,5.78
2018-02-25T18:11:12.245Z,6.45
2018-02-25T18:13:39.924Z,6.55
2018-02-25T18:16:07.574Z,7.18
2018-02-25T18:18:35.186Z,9.88
2018-02-25T18:21:02.870Z,5.93
2018-02-25T18:23:31.286Z,6.97
2018-02-25T18:25:58.978Z,6.10
2018-02-25T18:28:26.630Z,5.60
2018-02-25T18:30:57.537Z,6.40
2018-02-25T18:33:25.166Z,5.62
2018-02-25T18:35:53.585Z,5.15
2018-02-25T18:38:21.245Z,5.90
2018-02-25T18:40:48.877Z,6.10
2018-02-25T18:43:17.334Z,4.85
2018-02-25T18:45:45.006Z,5.22
2018-02-25T18:48:12.634Z,5.72
2018-02-25T18:50:43.803Z,5.53
2018-02-25T18:53:11.458Z,6.15
2018-02-25T18:55:39.102Z,6.25
2018-02-25T18:58:06.794Z,30.15
2018-02-25T19:00:34.427Z,4.20
2018-02-25T19:03:02.029Z,7.28
2018-02-25T19:05:29.788Z,8.15
2018-02-25T19:07:57.451Z,9.35
2018-02-25T19:10:25.073Z,18.77
2018-02-25T19:12:59.055Z,10.82
2018-02-25T19:15:26.771Z,6.82
2018-02-25T19:17:54.435Z,8.75
2018-02-25T19:20:22.114Z,14.70
2018-02-25T19:22:49.743Z,12.63
2018-02-25T19:25:17.356Z,4.50
2018-02-25T19:27:53.304Z,7.45
2018-02-25T19:30:20.949Z,6.45
2018-02-25T19:35:55.147Z,8.20
2018-02-25T19:38:30.162Z,5.90
2018-02-25T19:41:04.208Z,5.60
2018-02-25T19:43:33.528Z,6.28
2018-02-25T19:46:01.283Z,6.32
2018-02-25T19:48:28.908Z,9.25
2018-02-25T19:50:56.530Z,4.93
2018-02-25T19:53:24.938Z,5.15
2018-02-25T19:55:52.549Z,5.50
2018-02-25T19:58:20.184Z,5.97
2018-02-25T20:00:47.805Z,7.53
2018-02-25T20:03:16.183Z,7.05
2018-02-25T20:05:43.868Z,7.30
2018-02-25T20:08:11.479Z,7.53
2018-02-25T20:10:39.171Z,6.50
2018-02-25T20:13:06.812Z,10.75
2018-02-25T20:15:34.394Z,9.80
2018-02-25T20:18:02.033Z,10.07
2018-02-25T20:20:30.403Z,8.55
2018-02-25T20:22:58.006Z,9.95
2018-02-25T20:25:25.663Z,10.75
2018-02-25T20:27:53.302Z,12.40
2018-02-25T20:30:21.675Z,12.13
2018-02-25T20:32:49.287Z,13.80
2018-02-25T20:35:16.961Z,7.40
2018-02-25T20:37:44.612Z,7.95
2018-02-25T20:40:13.007Z,8.07
2018-02-25T20:42:40.680Z,6.18
2018-02-25T20:45:08.314Z,5.65
2018-02-25T20:47:36.696Z,5.10
2018-02-25T20:50:05.093Z,6.25
2018-02-25T20:52:32.716Z,6.37
2018-02-25T20:55:00.349Z,5.05
2018-02-25T20:57:28.203Z,5.03
2018-02-25T20:59:55.820Z,4.90
2018-02-25T21:02:23.463Z,5.90
2018-02-25T21:04:51.112Z,5.78
2018-02-25T21:07:18.739Z,7.90
2018-02-25T21:09:46.364Z,9.00
2018-02-25T21:12:14.036Z,16.50
2018-02-25T21:14:41.676Z,13.32
2018-02-25T21:17:09.341Z,11.75
2018-02-25T21:19:36.959Z,10.70
2018-02-25T21:22:04.588Z,18.80
2018-02-25T21:24:32.282Z,13.23
2018-02-25T21:26:59.908Z,13.25
2018-02-25T21:29:27.571Z,11.40
2018-02-25T21:31:55.201Z,6.47
2018-02-25T21:34:23.592Z,6.37
2018-02-25T21:36:51.198Z,7.37
2018-02-25T21:39:22.620Z,6.03
2018-02-25T21:41:50.246Z,7.53
2018-02-25T21:44:18.701Z,5.47
2018-02-25T21:46:46.334Z,6.57
2018-02-25T21:49:13.956Z,4.53
2018-02-25T21:51:41.632Z,6.12
2018-02-25T21:54:14.861Z,5.35
2018-02-25T21:56:48.224Z,3.22
2018-02-25T21:59:21.457Z,5.28
2018-02-25T22:01:54.664Z,4.85
2018-02-25T22:04:22.269Z,4.93
2018-02-25T22:06:49.883Z,5.60
2018-02-25T22:09:17.527Z,5.50
2018-02-25T22:11:45.187Z,5.22
2018-02-25T22:14:12.852Z,18.23
2018-02-25T22:16:40.507Z,13.80
2018-02-25T22:19:08.126Z,6.00
2018-02-25T22:21:36.545Z,12.57
2018-02-25T22:24:04.155Z,11.85
2018-02-25T22:26:31.995Z,8.30
2018-02-25T22:28:59.668Z,7.85
2018-02-25T22:31:27.365Z,6.35
2018-02-25T22:33:54.976Z,7.75
2018-02-25T22:36:22.530Z,8.10
2018-02-25T22:38:50.066Z,9.65
2018-02-25T22:41:17.623Z,9.50
2018-02-25T22:43:45.157Z,7.18
2018-02-25T22:46:13.461Z,6.82
2018-02-25T22:48:41.054Z,6.97
2018-02-25T22:51:08.724Z,6.85
2018-02-25T22:53:36.349Z,7.03
2018-02-25T22:56:03.982Z,5.70
2018-02-25T22:58:32.340Z,6.70
2018-02-25T23:00:59.949Z,8.40
2018-02-25T23:03:27.567Z,6.20
2018-02-25T23:05:55.208Z,6.55
2018-02-25T23:08:22.812Z,6.53
2018-02-25T23:10:50.440Z,5.90
2018-02-25T23:13:18.053Z,5.30
2018-02-25T23:15:45.663Z,9.35
2018-02-25T23:18:13.315Z,5.97
2018-02-25T23:20:40.943Z,6.70
2018-02-25T23:23:08.631Z,7.10
2018-02-25T23:25:36.264Z,7.53
2018-02-25T23:28:03.939Z,7.05
2018-02-25T23:30:31.563Z,9.98
2018-02-25T23:32:59.185Z,8.25
2018-02-25T23:35:26.781Z,6.85
2018-02-25T23:37:54.411Z,7.20
2018-02-25T23:40:22.025Z,7.03
2018-02-25T23:42:49.662Z,7.10
2018-02-25T23:45:17.273Z,6.40
2018-02-25T23:47:44.887Z,6.87
2018-02-25T23:50:12.521Z,6.55
2018-02-25T23:52:40.168Z,7.07
2018-02-25T23:55:08.699Z,5.95
2018-02-25T23:57:36.292Z,7.15
